Terminal Aerodrome Forecast
Issued by NWS

Home | Current Version | Previous Version | Text Only | Print | Product List | Glossary On
Versions: 1 2 3 4 5 6 7 8 9 10 11 12
000
FTUS44 KSJT 301700 RRA
TAFSOA
TAF
KSOA 301742Z 3018/3118 07008KT P6SM OVC035
     FM310000 15010KT P6SM OVC025
     FM310300 15012KT P6SM OVC015
     FM310600 15012KT 5SM -RA BR OVC008=

USA.gov is the U.S. government's official web portal to all federal, state and local government web resources and services.